Ocean Navigator — WSC2552 — position and weather

sailwx.info

Track history (hours):
 
Tides and Currents Weather Stations Pressure Air Temp Water Temp Dewpoint Dewpoint Depression Visibility Wind Speed Wind Dir Waves Ship Positions

Ocean Navigator

Owner: OCEAN NAVIGATOR INC, SEATTLE, WA. More information available from US FCC via Universal Licensing System and Coast Guard Vessel Documentation Center.

Last reported at 2017-Apr-18 18:02 UTC. Time now 2017-Apr-25 04:35 UTC.
Position N 47°39' W 122°22'.

Type: Tow > 200 m length. MMSI: 366358000.

Date/timePositionNaut miles runAvg speedWind from/ knotsBaromVisibWave heightAir tempDewpointWater temp
2017-Apr-18 18:02N 47°39' W 122°22'0 0.0
2017-Apr-18 18:01N 47°39' W 122°22'1 2.7
2017-Apr-18 17:31N 47°40' W 122°24'0 0.7
2017-Apr-18 17:00N 47°40' W 122°24'2 4.2
2017-Apr-18 16:30N 47°38' W 122°25'3 5.2
2017-Apr-18 16:01N 47°36' W 122°23'4 8.6
2017-Apr-18 15:30N 47°39' W 122°28'4 8.5
2017-Apr-18 15:01N 47°43' W 122°27'5 9.0
2017-Apr-18 14:31N 47°48' W 122°27'9 8.8
2017-Apr-18 13:30N 47°56' W 122°32'19 7.7
2017-Apr-18 11:04N 48°12' W 122°48'1 7.7
2017-Apr-18 10:59N 48°12' W 122°48'4 8.3
2017-Apr-18 10:30N 48°16' W 122°48'6 9.6
2017-Apr-18 09:51N 48°22' W 122°46'4 9.9
2017-Apr-18 09:30N 48°26' W 122°45'510.0
2017-Apr-18 09:00N 48°31' W 122°45'5 9.8
2017-Apr-18 08:30N 48°36' W 122°46'5 9.4
2017-Apr-18 08:00N 48°40' W 122°43'5 9.6
2017-Apr-18 07:29N 48°44' W 122°47'5 9.7
2017-Apr-18 07:00N 48°47' W 122°53'510.1
2017-Apr-18 06:30N 48°49' W 122°60'510.4
2017-Apr-18 06:00N 48°52' W 123°06'510.1
2017-Apr-18 05:30N 48°56' W 123°12'5 9.9
2017-Apr-18 05:00N 48°59' W 123°17'5 9.6
2017-Apr-18 04:30N 49°02' W 123°23'5 9.5
2017-Apr-18 04:01N 49°05' W 123°28'5 9.4
2017-Apr-18 03:30N 49°09' W 123°33'5 9.8
2017-Apr-18 03:00N 49°12' W 123°39'5 9.4
2017-Apr-18 02:29N 49°15' W 123°44'4 9.1
2017-Apr-18 02:00N 49°18' W 123°49'4 8.9
2017-Apr-18 01:30N 49°21' W 123°54'5 9.4
2017-Apr-18 01:00N 49°24' W 123°59'5 9.7
2017-Apr-18 00:30N 49°27' W 124°05'5 9.3
2017-Apr-18 00:00N 49°30' W 124°11'4 9.0
2017-Apr-17 23:31N 49°32' W 124°17'5 9.1
2017-Apr-17 23:00N 49°35' W 124°23'4 8.9
2017-Apr-17 22:31N 49°37' W 124°29'5 9.1
2017-Apr-17 22:00N 49°40' W 124°34'5 9.1
2017-Apr-17 21:30N 49°43' W 124°40'5 9.5
2017-Apr-17 21:00N 49°46' W 124°45'5 9.4
2017-Apr-17 20:31N 49°49' W 124°51'5 9.8
2017-Apr-17 20:00N 49°52' W 124°57'5 9.5
2017-Apr-17 19:30N 49°55' W 125°03'4 9.0
2017-Apr-17 19:00N 49°57' W 125°08'4 7.8
2017-Apr-17 18:31N 50°00' W 125°12'4 7.6
2017-Apr-17 18:01N 50°04' W 125°15'4 8.7
2017-Apr-17 17:30N 50°07' W 125°19'4 8.8
2017-Apr-17 17:00N 50°11' W 125°22'5 9.7
2017-Apr-17 16:31N 50°16' W 125°24'5 9.7
2017-Apr-17 16:01N 50°20' W 125°26'60 9.1
2017-Apr-17 09:23N 50°42' W 126°55'4 9.7
2017-Apr-17 08:59N 50°43' W 127°01'5 9.3
2017-Apr-17 08:28N 50°46' W 127°07'4 9.1
2017-Apr-17 07:59N 50°49' W 127°12'5 9.3
2017-Apr-17 07:30N 50°51' W 127°18'5 9.5
2017-Apr-17 07:00N 50°54' W 127°24'5 9.1
2017-Apr-17 06:30N 50°57' W 127°29'4 9.1
2017-Apr-17 06:00N 50°60' W 127°36'4 9.0
2017-Apr-17 05:30N 51°03' W 127°40'5 9.3
2017-Apr-17 05:00N 51°06' W 127°45'5 9.7
2017-Apr-17 04:30N 51°10' W 127°51'5 9.8
2017-Apr-17 04:00N 51°14' W 127°54'10 9.8
2017-Apr-17 03:02N 51°23' W 127°59'0 9.8
2017-Apr-17 03:00N 51°24' W 127°59'5 9.7
2017-Apr-17 02:29N 51°26' W 128°06'  
2017-Apr-13 00:00N 57°54' W 146°06'   1022.310.8 14.0
2017-Apr-09 18:00N 56°12' W 157°42'169 9.4 020 / 141003.410.8 3.5
2017-Apr-09 00:00N 55°00' W 162°12'   320 / 25998.310.8 1.0
Track history (hours):
 
Tides and Currents Weather Stations Pressure Air Temp Water Temp Dewpoint Dewpoint Depression Visibility Wind Speed Wind Dir Waves Ship Positions

Ocean Navigator

Owner: OCEAN NAVIGATOR INC, SEATTLE, WA. More information available from US FCC via Universal Licensing System and Coast Guard Vessel Documentation Center.

Last reported at 2017-Apr-18 18:02 UTC. Time now 2017-Apr-25 04:35 UTC.
Position N 47°39' W 122°22'.

Type: Tow > 200 m length. MMSI: 366358000.

Date/timePositionNaut miles runAvg speedWind from/ knotsBaromVisibWave heightAir tempDewpointWater temp
2017-Apr-18 18:02N 47°39' W 122°22'0 0.0
2017-Apr-18 18:01N 47°39' W 122°22'1 2.7
2017-Apr-18 17:31N 47°40' W 122°24'0 0.7
2017-Apr-18 17:00N 47°40' W 122°24'2 4.2
2017-Apr-18 16:30N 47°38' W 122°25'3 5.2
2017-Apr-18 16:01N 47°36' W 122°23'4 8.6
2017-Apr-18 15:30N 47°39' W 122°28'4 8.5
2017-Apr-18 15:01N 47°43' W 122°27'5 9.0
2017-Apr-18 14:31N 47°48' W 122°27'9 8.8
2017-Apr-18 13:30N 47°56' W 122°32'19 7.7
2017-Apr-18 11:04N 48°12' W 122°48'1 7.7
2017-Apr-18 10:59N 48°12' W 122°48'4 8.3
2017-Apr-18 10:30N 48°16' W 122°48'6 9.6
2017-Apr-18 09:51N 48°22' W 122°46'4 9.9
2017-Apr-18 09:30N 48°26' W 122°45'510.0
2017-Apr-18 09:00N 48°31' W 122°45'5 9.8
2017-Apr-18 08:30N 48°36' W 122°46'5 9.4
2017-Apr-18 08:00N 48°40' W 122°43'5 9.6
2017-Apr-18 07:29N 48°44' W 122°47'5 9.7
2017-Apr-18 07:00N 48°47' W 122°53'510.1
2017-Apr-18 06:30N 48°49' W 122°60'510.4
2017-Apr-18 06:00N 48°52' W 123°06'510.1
2017-Apr-18 05:30N 48°56' W 123°12'5 9.9
2017-Apr-18 05:00N 48°59' W 123°17'5 9.6
2017-Apr-18 04:30N 49°02' W 123°23'5 9.5
2017-Apr-18 04:01N 49°05' W 123°28'5 9.4
2017-Apr-18 03:30N 49°09' W 123°33'5 9.8
2017-Apr-18 03:00N 49°12' W 123°39'5 9.4
2017-Apr-18 02:29N 49°15' W 123°44'4 9.1
2017-Apr-18 02:00N 49°18' W 123°49'4 8.9
2017-Apr-18 01:30N 49°21' W 123°54'5 9.4
2017-Apr-18 01:00N 49°24' W 123°59'5 9.7
2017-Apr-18 00:30N 49°27' W 124°05'5 9.3
2017-Apr-18 00:00N 49°30' W 124°11'4 9.0
2017-Apr-17 23:31N 49°32' W 124°17'5 9.1
2017-Apr-17 23:00N 49°35' W 124°23'4 8.9
2017-Apr-17 22:31N 49°37' W 124°29'5 9.1
2017-Apr-17 22:00N 49°40' W 124°34'5 9.1
2017-Apr-17 21:30N 49°43' W 124°40'5 9.5
2017-Apr-17 21:00N 49°46' W 124°45'5 9.4
2017-Apr-17 20:31N 49°49' W 124°51'5 9.8
2017-Apr-17 20:00N 49°52' W 124°57'5 9.5
2017-Apr-17 19:30N 49°55' W 125°03'4 9.0
2017-Apr-17 19:00N 49°57' W 125°08'4 7.8
2017-Apr-17 18:31N 50°00' W 125°12'4 7.6
2017-Apr-17 18:01N 50°04' W 125°15'4 8.7
2017-Apr-17 17:30N 50°07' W 125°19'4 8.8
2017-Apr-17 17:00N 50°11' W 125°22'5 9.7
2017-Apr-17 16:31N 50°16' W 125°24'5 9.7
2017-Apr-17 16:01N 50°20' W 125°26'60 9.1
2017-Apr-17 09:23N 50°42' W 126°55'4 9.7
2017-Apr-17 08:59N 50°43' W 127°01'5 9.3
2017-Apr-17 08:28N 50°46' W 127°07'4 9.1
2017-Apr-17 07:59N 50°49' W 127°12'5 9.3
2017-Apr-17 07:30N 50°51' W 127°18'5 9.5
2017-Apr-17 07:00N 50°54' W 127°24'5 9.1
2017-Apr-17 06:30N 50°57' W 127°29'4 9.1
2017-Apr-17 06:00N 50°60' W 127°36'4 9.0
2017-Apr-17 05:30N 51°03' W 127°40'5 9.3
2017-Apr-17 05:00N 51°06' W 127°45'5 9.7
2017-Apr-17 04:30N 51°10' W 127°51'5 9.8
2017-Apr-17 04:00N 51°14' W 127°54'10 9.8
2017-Apr-17 03:02N 51°23' W 127°59'0 9.8
2017-Apr-17 03:00N 51°24' W 127°59'5 9.7
2017-Apr-17 02:29N 51°26' W 128°06'  
2017-Apr-13 00:00N 57°54' W 146°06'   1022.310.8 14.0
2017-Apr-09 18:00N 56°12' W 157°42'169 9.4 020 / 141003.410.8 3.5
2017-Apr-09 00:00N 55°00' W 162°12'   320 / 25998.310.8 1.0

Dump ship's entire track history